Time;durP1;ratioP1;P1;durP2;ratioP2;P2;SDS_P1;SDS_P2;PMS_P1;PMS_P2;Temp;Humidity;BMP_temperature;BMP_pressure;BME280_temperature;BME280_humidity;BME280_pressure;Samples;Min_cycle;Max_cycle;Signal;HPM_P1;HPM_P2
2023/10/23 00:00:40;;;;;;;2.85;1.77;;;;;;;9.95;nan;99239.72;4901610;29;20630;-77
2023/10/23 00:03:06;;;;;;;1.57;1.30;;;;;;;9.84;nan;99236.97;4901043;29;20210;-77
2023/10/23 00:05:31;;;;;;;1.90;1.57;;;;;;;9.77;nan;99233.91;4900250;29;20203;-77
2023/10/23 00:07:57;;;;;;;3.40;1.40;;;;;;;9.73;nan;99235.06;4903100;29;20553;-77
2023/10/23 00:10:22;;;;;;;1.30;1.20;;;;;;;9.71;nan;99250.06;4901523;29;20277;-78
2023/10/23 00:12:48;;;;;;;2.10;1.20;;;;;;;9.69;nan;99246.69;4901801;29;20672;-77
2023/10/23 00:15:13;;;;;;;2.03;1.30;;;;;;;9.69;nan;99249.31;4901129;29;20194;-77
2023/10/23 00:17:38;;;;;;;1.93;1.20;;;;;;;9.69;nan;99246.69;4902716;29;20269;-77
2023/10/23 00:20:04;;;;;;;2.03;1.60;;;;;;;9.69;nan;99247.56;4901419;29;20276;-77
2023/10/23 00:22:30;;;;;;;1.20;1.10;;;;;;;9.72;nan;99242.09;4901508;29;20254;-77
2023/10/23 00:24:55;;;;;;;1.57;1.47;;;;;;;9.76;nan;99245.34;4901802;29;20794;-78
2023/10/23 00:27:20;;;;;;;2.30;1.43;;;;;;;9.80;nan;99241.56;4905611;29;20297;-77
2023/10/23 00:29:46;;;;;;;1.93;0.90;;;;;;;9.84;nan;99242.22;4885696;29;20202;-78
2023/10/23 00:32:11;;;;;;;2.30;1.33;;;;;;;9.86;nan;99249.06;4901662;29;20214;-77
2023/10/23 00:34:37;;;;;;;3.00;1.13;;;;;;;9.86;nan;99246.44;4887339;29;20230;-77
2023/10/23 00:37:03;;;;;;;1.15;0.98;;;;;;;9.83;nan;99251.88;4882686;29;20272;-77
2023/10/23 00:39:29;;;;;;;1.17;0.70;;;;;;;9.80;nan;99245.97;4903727;29;20234;-77
2023/10/23 00:41:54;;;;;;;1.10;1.00;;;;;;;9.71;nan;99252.69;4885080;29;20221;-77
2023/10/23 00:44:20;;;;;;;2.00;1.13;;;;;;;9.63;nan;99262.84;4886963;29;20596;-78
2023/10/23 00:46:45;;;;;;;1.67;1.07;;;;;;;9.52;nan;99255.66;4901236;29;20352;-78
2023/10/23 00:49:11;;;;;;;1.00;0.90;;;;;;;9.42;nan;99260.66;4901042;29;20226;-77
2023/10/23 00:51:36;;;;;;;1.03;0.90;;;;;;;9.31;nan;99257.88;4902662;29;20214;-77
2023/10/23 00:54:04;;;;;;;1.17;1.07;;;;;;;9.24;nan;99260.06;4904614;29;20565;-77
2023/10/23 00:56:29;;;;;;;1.27;1.17;;;;;;;9.19;nan;99258.69;4900797;29;20285;-77
2023/10/23 00:58:57;;;;;;;1.13;1.03;;;;;;;9.12;nan;99258.22;4883543;29;20214;-78
2023/10/23 01:01:22;;;;;;;2.25;1.00;;;;;;;9.09;nan;99255.78;4903614;29;20241;-77
2023/10/23 01:03:48;;;;;;;3.00;1.17;;;;;;;9.08;nan;99260.19;4899429;29;20202;-78
2023/10/23 01:06:13;;;;;;;1.63;1.20;;;;;;;9.11;nan;99260.94;4897601;29;20591;-77
2023/10/23 01:08:39;;;;;;;1.00;0.90;;;;;;;9.14;nan;99258.13;4901257;29;20195;-77
2023/10/23 01:11:04;;;;;;;5.13;1.20;;;;;;;9.16;nan;99248.41;4903889;29;20618;-77
2023/10/23 01:13:30;;;;;;;2.67;1.23;;;;;;;9.17;nan;99247.44;4900421;29;21326;-77
2023/10/23 01:15:55;;;;;;;1.17;1.07;;;;;;;9.17;nan;99252.69;4897665;29;20206;-78
2023/10/23 01:18:21;;;;;;;1.57;1.47;;;;;;;9.18;nan;99254.34;4880895;29;20229;-77
2023/10/23 01:20:47;;;;;;;1.40;1.30;;;;;;;9.20;nan;99244.63;4897443;29;20266;-77
2023/10/23 01:23:12;;;;;;;1.20;1.10;;;;;;;9.23;nan;99241.81;4882062;29;20206;-77
2023/10/23 01:25:38;;;;;;;1.43;1.10;;;;;;;9.26;nan;99241.59;4901603;29;20561;-78
2023/10/23 01:28:04;;;;;;;1.20;1.10;;;;;;;9.25;nan;99235.53;4898518;29;20209;-77
2023/10/23 01:30:30;;;;;;;3.55;1.02;;;;;;;9.26;nan;99233.75;4900557;29;20411;-77
2023/10/23 01:32:56;;;;;;;2.97;1.27;;;;;;;9.17;nan;99232.56;4905996;29;20216;-77
2023/10/23 01:35:22;;;;;;;1.20;0.90;;;;;;;9.07;nan;99232.31;4903931;29;20950;-77
2023/10/23 01:37:51;;;;;;;1.70;1.15;;;;;;;8.96;nan;99224.28;4883029;29;20225;-77
2023/10/23 01:40:16;;;;;;;2.05;1.45;;;;;;;8.87;nan;99227.50;4900108;29;20221;-78
2023/10/23 01:42:44;;;;;;;1.17;1.08;;;;;;;8.81;nan;99236.56;4904876;29;20289;-78
2023/10/23 01:45:10;;;;;;;1.00;0.90;;;;;;;8.79;nan;99232.38;4899840;29;20206;-78
2023/10/23 01:47:35;;;;;;;1.00;0.90;;;;;;;8.77;nan;99229.00;4900132;29;20213;-77
2023/10/23 01:50:01;;;;;;;1.87;1.40;;;;;;;8.72;nan;99221.44;4912256;29;20467;-76
2023/10/23 01:52:26;;;;;;;1.80;1.20;;;;;;;8.72;nan;99225.81;4915450;29;20224;-78
2023/10/23 01:54:52;;;;;;;3.47;1.30;;;;;;;8.71;nan;99229.38;4903329;29;20613;-77
2023/10/23 01:57:18;;;;;;;2.57;1.10;;;;;;;8.71;nan;99230.22;4901797;29;20214;-78
2023/10/23 01:59:43;;;;;;;4.93;1.53;;;;;;;8.72;nan;99228.44;4888072;29;21187;-78
2023/10/23 02:02:09;;;;;;;2.30;1.40;;;;;;;8.73;nan;99222.28;4888268;29;20213;-78
2023/10/23 02:04:35;;;;;;;1.53;1.30;;;;;;;8.74;nan;99219.56;4896538;29;20262;-77
2023/10/23 02:07:01;;;;;;;2.08;1.25;;;;;;;8.74;nan;99218.72;4897366;29;20237;-77
2023/10/23 02:09:27;;;;;;;1.40;1.30;;;;;;;8.73;nan;99217.03;4895161;29;20692;-77
2023/10/23 02:11:52;;;;;;;1.63;1.30;;;;;;;8.67;nan;99214.78;4893857;29;20462;-75
2023/10/23 02:14:18;;;;;;;2.90;1.10;;;;;;;8.61;nan;99222.09;4893491;29;20207;-78
2023/10/23 02:16:43;;;;;;;1.43;1.33;;;;;;;8.57;nan;99225.84;4894036;29;20305;-77
2023/10/23 02:19:09;;;;;;;1.23;1.00;;;;;;;8.57;nan;99225.84;4893491;29;20257;-77
2023/10/23 02:21:35;;;;;;;1.30;1.20;;;;;;;8.58;nan;99222.28;4890753;29;20210;-77
2023/10/23 02:24:00;;;;;;;1.20;1.10;;;;;;;8.59;nan;99218.75;4894417;29;20677;-77
2023/10/23 02:26:26;;;;;;;1.20;1.00;;;;;;;8.61;nan;99222.09;4875164;29;20534;-77
2023/10/23 02:28:52;;;;;;;2.00;1.10;;;;;;;8.58;nan;99221.44;4886882;29;20202;-75
2023/10/23 02:31:17;;;;;;;1.30;1.20;;;;;;;8.53;nan;99213.88;4873820;29;20213;-75
2023/10/23 02:33:43;;;;;;;1.00;0.90;;;;;;;8.47;nan;99211.63;4894002;29;20458;-77
2023/10/23 02:36:08;;;;;;;2.20;0.93;;;;;;;8.38;nan;99207.78;4877074;29;20201;-77
2023/10/23 02:38:34;;;;;;;1.00;0.80;;;;;;;8.25;nan;99209.44;4873193;29;20218;-77
2023/10/23 02:40:59;;;;;;;1.40;1.00;;;;;;;8.11;nan;99194.59;4895188;29;20213;-77
2023/10/23 02:43:25;;;;;;;1.10;0.93;;;;;;;7.98;nan;99197.09;4895057;29;20230;-77
2023/10/23 02:45:50;;;;;;;1.07;0.90;;;;;;;7.88;nan;99198.56;4892355;29;20249;-77
2023/10/23 02:48:17;;;;;;;1.10;0.97;;;;;;;7.81;nan;99196.41;4887671;29;20254;-76
2023/10/23 02:50:51;;;;;;;2.60;1.20;;;;;;;7.78;nan;99191.34;4891408;29;20322;-76
2023/10/23 02:53:17;;;;;;;1.08;0.90;;;;;;;7.76;nan;99188.84;4892319;29;20213;-77
2023/10/23 02:55:42;;;;;;;0.80;0.80;;;;;;;7.75;nan;99193.22;4888467;29;20199;-77
2023/10/23 02:58:07;;;;;;;2.03;1.00;;;;;;;7.76;nan;99199.28;4891461;29;20342;-76
2023/10/23 03:00:33;;;;;;;1.20;1.10;;;;;;;7.79;nan;99193.03;4891042;29;20227;-77
2023/10/23 03:02:58;;;;;;;1.07;0.97;;;;;;;7.81;nan;99194.63;4891919;29;20875;-76
2023/10/23 03:05:24;;;;;;;1.20;1.03;;;;;;;7.79;nan;99188.66;4894771;29;20621;-77
2023/10/23 03:07:50;;;;;;;1.37;1.10;;;;;;;7.75;nan;99189.78;4896942;29;20214;-76
2023/10/23 03:10:16;;;;;;;1.50;1.10;;;;;;;7.67;nan;99187.59;4895596;29;20223;-77
2023/10/23 03:12:41;;;;;;;1.90;0.97;;;;;;;7.60;nan;99191.50;4898684;29;20205;-77
2023/10/23 03:15:07;;;;;;;0.80;0.80;;;;;;;7.52;nan;99201.56;4898361;29;20202;-76
2023/10/23 03:17:33;;;;;;;1.75;1.10;;;;;;;7.45;nan;99205.44;4882557;29;20211;-77
2023/10/23 03:19:59;;;;;;;1.67;1.23;;;;;;;7.39;nan;99206.63;4896333;29;20255;-77
2023/10/23 03:22:25;;;;;;;2.87;1.10;;;;;;;7.35;nan;99196.47;4879717;29;20949;-77
2023/10/23 03:24:51;;;;;;;1.17;0.90;;;;;;;7.32;nan;99190.47;4879916;29;20232;-76
2023/10/23 03:27:16;;;;;;;3.10;1.00;;;;;;;7.32;nan;99200.94;4880164;29;20463;-77
2023/10/23 03:29:45;;;;;;;17.50;10.63;;;;;;;7.33;nan;99193.94;4879184;29;20198;-76
2023/10/23 03:32:11;;;;;;;2.00;1.80;;;;;;;7.35;nan;99204.31;4875493;29;20230;-76
2023/10/23 03:34:37;;;;;;;1.00;0.90;;;;;;;7.32;nan;99192.25;4901059;29;20202;-77
2023/10/23 03:37:03;;;;;;;1.37;1.00;;;;;;;7.29;nan;99187.19;4897662;29;20331;-77
2023/10/23 03:39:28;;;;;;;4.50;1.00;;;;;;;7.27;nan;99170.78;4897820;29;20337;-77
2023/10/23 03:41:54;;;;;;;1.23;0.90;;;;;;;7.23;nan;99183.16;4901237;29;20217;-76
2023/10/23 03:44:19;;;;;;;0.83;0.80;;;;;;;7.20;nan;99180.72;4898105;29;20929;-76
2023/10/23 03:46:44;;;;;;;0.83;0.70;;;;;;;7.17;nan;99178.28;4901303;29;20270;-76
2023/10/23 03:49:10;;;;;;;4.30;1.00;;;;;;;7.13;nan;99179.41;4898856;29;20219;-77
2023/10/23 03:51:35;;;;;;;1.47;1.03;;;;;;;7.09;nan;99178.69;4899806;29;20471;-77
2023/10/23 03:54:01;;;;;;;0.80;0.80;;;;;;;7.06;nan;99181.50;4898661;29;20245;-77
2023/10/23 03:56:26;;;;;;;1.90;0.83;;;;;;;7.06;nan;99185.88;4898820;29;20199;-77
2023/10/23 03:58:52;;;;;;;1.00;0.80;;;;;;;7.04;nan;99185.13;4899116;29;20225;-76
2023/10/23 04:01:17;;;;;;;1.00;0.90;;;;;;;7.02;nan;99192.19;4895517;29;20226;-77
2023/10/23 04:03:43;;;;;;;1.27;0.97;;;;;;;7.01;nan;99193.13;4900737;29;20309;-76
2023/10/23 04:06:08;;;;;;;1.07;0.97;;;;;;;6.97;nan;99192.47;4898838;29;20888;-76
2023/10/23 04:08:34;;;;;;;1.80;1.30;;;;;;;6.96;nan;99192.53;4901914;29;20471;-77
2023/10/23 04:11:03;;;;;;;2.07;1.10;;;;;;;6.95;nan;99196.09;4895272;29;20206;-77
2023/10/23 04:13:29;;;;;;;2.20;1.25;;;;;;;6.95;nan;99191.69;4896486;29;20670;-77
2023/10/23 04:15:58;;;;;;;1.07;0.97;;;;;;;6.99;nan;99187.13;4899567;29;20202;-77
2023/10/23 04:18:25;;;;;;;1.80;1.05;;;;;;;7.05;nan;99176.38;4899604;29;20344;-77
2023/10/23 04:21:02;;;;;;;1.95;1.30;;;;;;;7.08;nan;99171.81;4897358;29;20240;-77
2023/10/23 04:23:27;;;;;;;1.23;1.00;;;;;;;7.12;nan;99174.25;4901963;29;20724;-76
2023/10/23 04:25:54;;;;;;;1.37;1.23;;;;;;;7.17;nan;99177.44;4898697;29;20202;-77
2023/10/23 04:28:20;;;;;;;1.10;1.00;;;;;;;7.25;nan;99170.00;4895768;29;20586;-77
2023/10/23 04:30:45;;;;;;;2.13;1.10;;;;;;;7.31;nan;99156.59;4896584;29;20202;-77
2023/10/23 04:33:10;;;;;;;2.00;1.10;;;;;;;7.35;nan;99146.81;4896999;29;20281;-77
2023/10/23 04:35:36;;;;;;;1.57;1.47;;;;;;;7.37;nan;99151.03;4897419;29;20209;-76
2023/10/23 04:38:02;;;;;;;2.40;1.10;;;;;;;7.40;nan;99155.22;4899587;29;20222;-77
2023/10/23 04:40:27;;;;;;;1.52;1.30;;;;;;;7.43;nan;99155.06;4897257;29;20883;-77
2023/10/23 04:42:53;;;;;;;2.57;1.30;;;;;;;7.48;nan;99168.69;4895776;29;20210;-77
2023/10/23 04:45:18;;;;;;;2.63;1.80;;;;;;;7.53;nan;99162.28;4897641;29;20269;-77
2023/10/23 04:47:43;;;;;;;1.40;1.13;;;;;;;7.59;nan;99157.59;4897158;29;20247;-77
2023/10/23 04:50:11;;;;;;;1.53;1.40;;;;;;;7.62;nan;99163.50;4897875;29;20202;-77
2023/10/23 04:52:37;;;;;;;1.20;1.10;;;;;;;7.60;nan;99162.75;4897780;29;20197;-76
2023/10/23 04:55:03;;;;;;;1.77;1.23;;;;;;;7.55;nan;99159.56;4896303;29;20210;-77
2023/10/23 04:57:29;;;;;;;1.37;1.20;;;;;;;7.52;nan;99163.19;4903361;29;20206;-77
2023/10/23 04:59:54;;;;;;;1.50;1.40;;;;;;;7.51;nan;99173.75;4900722;29;20561;-77
2023/10/23 05:02:19;;;;;;;2.07;1.77;;;;;;;7.44;nan;99172.41;4891825;29;21096;-77
2023/10/23 05:04:45;;;;;;;1.20;1.10;;;;;;;7.39;nan;99174.44;4895176;29;20198;-77
2023/10/23 05:07:10;;;;;;;1.20;1.03;;;;;;;7.37;nan;99165.84;4899527;29;20444;-77
2023/10/23 05:09:36;;;;;;;1.53;1.20;;;;;;;7.34;nan;99158.19;4894213;29;20458;-77
2023/10/23 05:12:02;;;;;;;4.00;1.37;;;;;;;7.31;nan;99154.81;4893055;29;20241;-77
2023/10/23 05:14:27;;;;;;;4.15;3.35;;;;;;;7.31;nan;99151.38;4892747;29;20265;-77
2023/10/23 05:16:53;;;;;;;6.40;4.77;;;;;;;7.31;nan;99159.19;4898475;29;20206;-77
2023/10/23 05:19:18;;;;;;;4.40;3.27;;;;;;;7.30;nan;99160.16;4898745;29;20218;-77
2023/10/23 05:21:43;;;;;;;3.27;2.97;;;;;;;7.31;nan;99161.81;4893145;29;20674;-77
2023/10/23 05:24:09;;;;;;;3.93;2.63;;;;;;;7.32;nan;99150.47;4888874;29;20210;-77
2023/10/23 05:26:34;;;;;;;5.33;2.93;;;;;;;7.39;nan;99140.47;4895211;29;20198;-77
2023/10/23 05:29:00;;;;;;;3.67;1.50;;;;;;;7.40;nan;99137.78;4894131;29;20210;-76
2023/10/23 05:31:25;;;;;;;4.00;1.67;;;;;;;7.41;nan;99126.41;4899961;29;20219;-77
2023/10/23 05:33:51;;;;;;;2.47;1.70;;;;;;;7.44;nan;99126.22;4898171;29;20312;-76
2023/10/23 05:36:17;;;;;;;4.73;1.53;;;;;;;7.50;nan;99125.00;4898169;29;20932;-77
2023/10/23 05:38:42;;;;;;;3.03;2.00;;;;;;;7.57;nan;99118.50;4899613;29;20478;-77
2023/10/23 05:41:09;;;;;;;2.80;1.90;;;;;;;7.62;nan;99115.63;4899536;29;20242;-76
2023/10/23 05:43:35;;;;;;;1.88;1.42;;;;;;;7.68;nan;99104.78;4898935;29;20190;-76
2023/10/23 05:46:03;;;;;;;1.50;1.40;;;;;;;7.73;nan;99113.19;4897111;29;20709;-76
2023/10/23 05:48:29;;;;;;;3.10;1.40;;;;;;;7.78;nan;99108.53;4900554;29;20349;-76
2023/10/23 05:51:03;;;;;;;2.13;1.80;;;;;;;7.84;nan;99105.56;4902017;29;20209;-76
2023/10/23 05:53:29;;;;;;;5.28;1.52;;;;;;;7.87;nan;99107.13;4901813;29;20259;-76
2023/10/23 05:56:03;;;;;;;2.42;1.60;;;;;;;7.88;nan;99114.03;4894863;29;20224;-76
2023/10/23 05:58:29;;;;;;;1.42;1.30;;;;;;;7.85;nan;99117.69;4902754;29;21181;-77
2023/10/23 06:00:55;;;;;;;3.28;2.03;;;;;;;7.79;nan;99115.44;4899560;29;20210;-76
2023/10/23 06:03:20;;;;;;;2.20;1.40;;;;;;;7.73;nan;99121.88;4903157;29;20230;-77
2023/10/23 06:05:45;;;;;;;1.90;1.67;;;;;;;7.67;nan;99127.47;4899168;29;20170;-76
2023/10/23 06:08:11;;;;;;;3.07;1.00;;;;;;;7.62;nan;99124.28;4899144;29;20573;-76
2023/10/23 06:10:43;;;;;;;2.60;1.93;;;;;;;7.60;nan;99127.94;4898793;29;20206;-77
2023/10/23 06:13:08;;;;;;;1.58;1.30;;;;;;;7.57;nan;99133.34;4899521;29;20274;-76
2023/10/23 06:15:34;;;;;;;1.87;1.77;;;;;;;7.56;nan;99135.13;4900951;29;20807;-76
2023/10/23 06:18:01;;;;;;;1.73;1.37;;;;;;;7.56;nan;99139.47;4899135;29;20206;-76
2023/10/23 06:20:27;;;;;;;2.15;1.05;;;;;;;7.56;nan;99142.09;4900728;29;20217;-77
2023/10/23 06:22:52;;;;;;;1.30;1.20;;;;;;;7.55;nan;99146.50;4900806;29;20202;-76
2023/10/23 06:25:17;;;;;;;2.23;1.83;;;;;;;7.59;nan;99141.91;4897523;29;20206;-77
2023/10/23 06:27:43;;;;;;;1.27;1.17;;;;;;;7.63;nan;99140.81;4897139;29;20277;-76
2023/10/23 06:30:08;;;;;;;2.20;2.00;;;;;;;7.67;nan;99130.09;4897969;29;20194;-76
2023/10/23 06:32:34;;;;;;;2.70;1.83;;;;;;;7.73;nan;99136.72;4902393;29;20684;-77
2023/10/23 06:35:00;;;;;;;3.22;2.70;;;;;;;7.78;nan;99123.38;4898973;29;20455;-76
2023/10/23 06:37:25;;;;;;;5.40;3.60;;;;;;;7.79;nan;99112.00;4898981;29;20194;-76
2023/10/23 06:39:51;;;;;;;4.20;3.07;;;;;;;7.81;nan;99115.38;4898636;29;20272;-76
2023/10/23 06:42:16;;;;;;;4.43;2.43;;;;;;;7.83;nan;99118.69;4903038;29;20374;-76
2023/10/23 06:44:41;;;;;;;2.27;2.07;;;;;;;7.87;nan;99112.38;4901964;29;20209;-76
2023/10/23 06:47:07;;;;;;;2.77;2.27;;;;;;;7.94;nan;99124.16;4904992;29;20202;-77
2023/10/23 06:49:32;;;;;;;2.30;1.50;;;;;;;8.02;nan;99129.75;4887784;29;20223;-77
2023/10/23 06:51:59;;;;;;;7.03;2.20;;;;;;;8.09;nan;99128.44;4902263;29;20653;-76
2023/10/23 06:54:26;;;;;;;2.35;2.15;;;;;;;8.15;nan;99128.03;4899373;29;20690;-77
2023/10/23 06:56:52;;;;;;;3.47;2.00;;;;;;;8.21;nan;99116.41;4900685;29;20561;-76
2023/10/23 06:59:18;;;;;;;2.03;1.93;;;;;;;8.28;nan;99106.38;4898978;29;20218;-77
2023/10/23 07:01:43;;;;;;;3.00;2.80;;;;;;;8.34;nan;99106.81;4898983;29;20210;-77
2023/10/23 07:04:09;;;;;;;2.87;2.60;;;;;;;8.40;nan;99103.88;4899455;29;20197;-76
2023/10/23 07:06:34;;;;;;;2.93;2.60;;;;;;;8.46;nan;99110.50;4902442;29;20203;-77
2023/10/23 07:08:59;;;;;;;3.00;2.33;;;;;;;8.50;nan;99114.59;4896852;29;20199;-76
2023/10/23 07:11:25;;;;;;;3.50;2.20;;;;;;;8.56;nan;99110.75;4899686;29;20249;-76
2023/10/23 07:13:50;;;;;;;1.83;1.73;;;;;;;8.62;nan;99111.19;4898963;29;20235;-76
2023/10/23 07:16:16;;;;;;;3.93;1.93;;;;;;;8.68;nan;99109.13;4901642;29;20631;-76
2023/10/23 07:18:41;;;;;;;4.70;2.47;;;;;;;8.72;nan;99108.00;4903899;29;20225;-76
2023/10/23 07:21:07;;;;;;;2.10;1.70;;;;;;;8.77;nan;99098.91;4901986;29;20241;-77
2023/10/23 07:23:33;;;;;;;2.50;2.30;;;;;;;8.79;nan;99086.56;4901908;29;20722;-76
2023/10/23 07:26:03;;;;;;;3.47;2.97;;;;;;;8.77;nan;99080.56;4905144;29;20236;-77
2023/10/23 07:28:28;;;;;;;6.30;2.90;;;;;;;8.75;nan;99068.50;4902354;29;20206;-76
2023/10/23 07:30:54;;;;;;;6.37;3.47;;;;;;;8.78;nan;99065.72;4902538;29;20241;-77
2023/10/23 07:33:19;;;;;;;3.57;3.23;;;;;;;8.80;nan;99067.31;4901469;29;20278;-77
2023/10/23 07:35:45;;;;;;;4.67;3.40;;;;;;;8.83;nan;99066.22;4900446;29;20178;-77
2023/10/23 07:38:10;;;;;;;3.03;2.23;;;;;;;8.87;nan;99070.34;4899019;29;20250;-77
2023/10/23 07:40:43;;;;;;;10.23;4.07;;;;;;;8.92;nan;99068.28;4899910;29;20218;-76
2023/10/23 07:43:08;;;;;;;6.05;3.90;;;;;;;8.96;nan;99072.34;4904123;29;20206;-77
2023/10/23 07:45:38;;;;;;;5.17;3.43;;;;;;;9.02;nan;99065.91;4898186;29;20206;-76
2023/10/23 07:48:04;;;;;;;4.22;3.83;;;;;;;9.06;nan;99057.72;4902181;29;20221;-76
2023/10/23 07:50:32;;;;;;;4.23;3.60;;;;;;;9.08;nan;99071.56;4881173;29;20222;-76
2023/10/23 07:52:59;;;;;;;8.85;3.90;;;;;;;9.11;nan;99085.41;4903843;29;20670;-76
2023/10/23 07:55:24;;;;;;;5.07;2.88;;;;;;;9.12;nan;99085.28;4899781;29;20234;-77
2023/10/23 07:57:50;;;;;;;3.57;2.70;;;;;;;9.13;nan;99091.34;4896738;29;20202;-77
2023/10/23 08:00:15;;;;;;;3.57;2.23;;;;;;;9.16;nan;99105.13;4900486;29;20269;-77
2023/10/23 08:02:41;;;;;;;3.30;2.83;;;;;;;9.18;nan;99110.25;4898478;29;20203;-76
2023/10/23 08:05:06;;;;;;;2.70;2.50;;;;;;;9.20;nan;99122.31;4900032;29;20209;-76
2023/10/23 08:07:32;;;;;;;4.78;4.28;;;;;;;9.24;nan;99104.63;4901788;29;20515;-77
2023/10/23 08:09:57;;;;;;;3.20;2.90;;;;;;;9.28;nan;99109.53;4900666;29;21087;-77
2023/10/23 08:12:22;;;;;;;2.63;2.37;;;;;;;9.33;nan;99114.47;4900466;29;20684;-77
2023/10/23 08:14:48;;;;;;;3.60;2.10;;;;;;;9.38;nan;99124.66;4901417;29;20225;-76
2023/10/23 08:17:13;;;;;;;3.40;2.40;;;;;;;9.43;nan;99139.16;4898853;29;20357;-77
2023/10/23 08:19:39;;;;;;;4.10;2.43;;;;;;;9.51;nan;99143.88;4899029;29;20240;-77
2023/10/23 08:22:04;;;;;;;3.30;2.67;;;;;;;9.59;nan;99149.44;4901311;29;20222;-77
2023/10/23 08:24:30;;;;;;;3.77;3.30;;;;;;;9.67;nan;99159.44;4902228;29;20990;-75
2023/10/23 08:26:55;;;;;;;3.10;2.90;;;;;;;9.72;nan;99178.28;4900652;29;20224;-76
2023/10/23 08:29:21;;;;;;;3.03;2.73;;;;;;;9.75;nan;99163.22;4900429;29;20199;-77
2023/10/23 08:31:47;;;;;;;10.75;4.38;;;;;;;9.79;nan;99160.38;4906034;29;20218;-77
2023/10/23 08:34:12;;;;;;;6.83;4.10;;;;;;;9.82;nan;99154.91;4902253;29;20198;-77
2023/10/23 08:36:38;;;;;;;6.75;3.78;;;;;;;9.87;nan;99160.69;4901915;29;20464;-76
2023/10/23 08:39:03;;;;;;;5.83;3.90;;;;;;;9.90;nan;99158.69;4902926;29;20227;-77
2023/10/23 08:41:29;;;;;;;3.50;3.10;;;;;;;9.91;nan;99159.53;4900609;29;20253;-76
2023/10/23 08:43:55;;;;;;;3.77;3.20;;;;;;;9.92;nan;99146.31;4903899;29;20285;-77
2023/10/23 08:46:25;;;;;;;4.63;3.38;;;;;;;9.91;nan;99141.16;4901191;29;20206;-77
2023/10/23 08:48:51;;;;;;;3.17;2.88;;;;;;;9.94;nan;99136.56;4901637;29;20225;-75
2023/10/23 08:51:18;;;;;;;4.80;3.42;;;;;;;9.97;nan;99128.50;4906523;29;20307;-75
2023/10/23 08:53:54;;;;;;;3.75;3.30;;;;;;;10.01;nan;99123.03;4902557;29;21437;-77
2023/10/23 08:56:21;;;;;;;6.13;3.72;;;;;;;10.00;nan;99135.31;4899562;29;20210;-75
2023/10/23 08:58:53;;;;;;;7.75;4.10;;;;;;;10.09;nan;99128.59;4903144;29;20221;-77
2023/10/23 09:01:19;;;;;;;4.10;3.50;;;;;;;10.15;nan;99130.78;4898771;29;20716;-77
2023/10/23 09:03:46;;;;;;;5.07;4.20;;;;;;;10.25;nan;99116.06;4897389;29;20203;-78
2023/10/23 09:06:16;;;;;;;5.32;3.88;;;;;;;10.35;nan;99096.13;4899940;29;20468;-76
2023/10/23 09:08:43;;;;;;;6.45;3.78;;;;;;;10.43;nan;99100.00;4902021;29;20194;-75
2023/10/23 09:11:08;;;;;;;5.97;3.87;;;;;;;10.49;nan;99112.69;4898769;29;20214;-77
2023/10/23 09:13:37;;;;;;;5.20;3.73;;;;;;;10.55;nan;99113.09;4900612;29;20486;-76
2023/10/23 09:16:04;;;;;;;4.00;3.70;;;;;;;10.62;nan;99116.13;4902831;29;20201;-77
2023/10/23 09:18:29;;;;;;;6.32;3.90;;;;;;;10.69;nan;99103.38;4900482;29;20270;-77
2023/10/23 09:20:56;;;;;;;4.10;3.70;;;;;;;10.72;nan;99117.16;4903021;29;20214;-75
2023/10/23 09:23:21;;;;;;;4.05;3.65;;;;;;;10.82;nan;99140.94;4901708;29;20297;-75
2023/10/23 09:25:48;;;;;;;5.50;4.20;;;;;;;10.96;nan;99117.13;4900370;29;20464;-77
2023/10/23 09:28:13;;;;;;;6.13;3.90;;;;;;;11.10;nan;99126.66;4900166;29;20226;-76
2023/10/23 09:30:38;;;;;;;7.20;4.17;;;;;;;11.23;nan;99139.72;4899876;29;20735;-77
2023/10/23 09:33:06;;;;;;;5.87;3.53;;;;;;;11.35;nan;99117.78;4897290;29;20205;-76
2023/10/23 09:35:31;;;;;;;6.60;5.10;;;;;;;11.41;nan;99127.84;4897071;29;20465;-76
2023/10/23 09:37:56;;;;;;;7.20;4.50;;;;;;;11.45;nan;99102.13;4906168;29;20533;-78
2023/10/23 09:40:22;;;;;;;5.73;5.20;;;;;;;11.46;nan;99104.66;4899584;29;20794;-77
2023/10/23 09:42:47;;;;;;;4.27;3.87;;;;;;;11.48;nan;99110.66;4902417;29;20191;-75
2023/10/23 09:45:15;;;;;;;6.63;4.30;;;;;;;11.49;nan;99107.06;4898380;29;20887;-75
2023/10/23 09:47:41;;;;;;;5.18;4.65;;;;;;;11.49;nan;99099.16;4899229;29;20763;-76
2023/10/23 09:50:07;;;;;;;6.43;4.60;;;;;;;11.46;nan;99080.16;4899842;29;20224;-77
2023/10/23 09:52:34;;;;;;;5.97;3.97;;;;;;;11.38;nan;99069.38;4902620;29;20462;-74
2023/10/23 09:55:03;;;;;;;4.38;3.80;;;;;;;11.34;nan;99066.16;4902207;29;20217;-77
2023/10/23 09:57:34;;;;;;;5.00;3.42;;;;;;;11.33;nan;99050.50;4900700;29;20226;-76
2023/10/23 10:00:01;;;;;;;4.60;3.80;;;;;;;11.26;nan;99050.97;4904797;29;20221;-77
2023/10/23 10:02:30;;;;;;;8.20;5.65;;;;;;;11.15;nan;99045.69;4899657;29;20214;-77
2023/10/23 10:05:08;;;;;;;9.90;4.82;;;;;;;11.00;nan;99025.78;4898577;29;20224;-76
2023/10/23 10:07:45;;;;;;;5.45;4.95;;;;;;;10.89;nan;99031.84;4901773;29;20209;-75
2023/10/23 10:10:11;;;;;;;7.35;4.97;;;;;;;10.91;nan;99043.09;4898236;29;20293;-78
2023/10/23 10:12:38;;;;;;;6.47;4.67;;;;;;;10.96;nan;99040.91;4900583;29;20224;-77
2023/10/23 10:15:09;;;;;;;3.72;3.42;;;;;;;10.99;nan;99024.94;4900531;29;20688;-77
2023/10/23 10:17:36;;;;;;;5.70;4.00;;;;;;;10.94;nan;99021.00;4900861;29;20214;-76
2023/10/23 10:20:02;;;;;;;4.45;4.05;;;;;;;10.94;nan;99023.63;4897506;29;21224;-75
2023/10/23 10:22:30;;;;;;;3.85;3.20;;;;;;;10.94;nan;99036.75;4900023;29;20285;-75
2023/10/23 10:24:56;;;;;;;5.70;4.55;;;;;;;10.96;nan;99019.06;4900089;29;20198;-77
2023/10/23 10:27:22;;;;;;;4.50;4.10;;;;;;;11.02;nan;99016.00;4900411;29;20612;-76
2023/10/23 10:29:48;;;;;;;7.80;4.17;;;;;;;11.07;nan;99017.34;4901259;29;20254;-77
2023/10/23 10:32:13;;;;;;;8.53;4.00;;;;;;;11.13;nan;99013.41;4900920;29;20224;-76
2023/10/23 10:34:50;;;;;;;7.57;4.80;;;;;;;11.25;nan;99009.00;4898745;29;20316;-76
2023/10/23 10:37:15;;;;;;;11.10;4.22;;;;;;;11.30;nan;98997.19;4901014;29;20202;-77
2023/10/23 10:39:50;;;;;;;4.83;3.80;;;;;;;11.30;nan;99009.50;4899060;29;20225;-76
2023/10/23 10:42:16;;;;;;;6.28;4.72;;;;;;;11.37;nan;99015.09;4901906;29;20773;-75
2023/10/23 10:44:52;;;;;;;10.82;7.93;;;;;;;11.46;nan;99019.69;4898773;29;20198;-77
2023/10/23 10:47:18;;;;;;;6.05;4.10;;;;;;;11.57;nan;99010.97;4899864;29;20220;-75
2023/10/23 10:49:48;;;;;;;5.93;3.97;;;;;;;11.64;nan;99020.06;4903163;29;20689;-75
2023/10/23 10:52:32;;;;;;;5.18;4.15;;;;;;;11.72;nan;99025.56;4901893;29;20202;-76
2023/10/23 10:55:01;;;;;;;7.55;5.05;;;;;;;11.79;nan;99010.13;4904611;29;20233;-77
2023/10/23 10:57:26;;;;;;;7.68;4.68;;;;;;;11.86;nan;99009.56;4903619;29;20654;-78
2023/10/23 10:59:57;;;;;;;5.00;3.93;;;;;;;11.84;nan;99019.34;4906488;29;20329;-76
2023/10/23 11:02:22;;;;;;;5.25;4.20;;;;;;;11.81;nan;99026.63;4905879;29;20212;-77
2023/10/23 11:04:48;;;;;;;4.80;3.60;;;;;;;11.82;nan;99013.34;4904243;29;20206;-77
2023/10/23 11:07:13;;;;;;;3.40;3.10;;;;;;;11.82;nan;99004.63;4921213;29;20451;-74
2023/10/23 11:09:39;;;;;;;6.20;3.60;;;;;;;11.80;nan;99012.66;4930825;29;20198;-74
2023/10/23 11:12:06;;;;;;;5.43;4.93;;;;;;;11.73;nan;98988.59;4928962;29;20230;-76
2023/10/23 11:14:32;;;;;;;4.93;3.53;;;;;;;11.68;nan;98987.28;4914120;29;20206;-78
2023/10/23 11:16:57;;;;;;;8.80;4.13;;;;;;;11.65;nan;98975.22;4908170;29;20213;-77
2023/10/23 11:19:23;;;;;;;5.50;5.00;;;;;;;11.58;nan;98955.59;4902043;29;20215;-77
2023/10/23 11:21:48;;;;;;;4.43;4.00;;;;;;;11.47;nan;98929.28;4903449;29;20218;-75
2023/10/23 11:24:14;;;;;;;5.60;4.00;;;;;;;11.48;nan;98894.16;4902657;29;20186;-74
2023/10/23 11:26:39;;;;;;;5.23;4.47;;;;;;;11.52;nan;98861.41;4901637;29;20206;-75
2023/10/23 11:29:05;;;;;;;6.30;4.80;;;;;;;11.54;nan;98851.59;4902524;29;20194;-76
2023/10/23 11:31:30;;;;;;;5.60;3.70;;;;;;;11.66;nan;98870.81;4905139;29;20205;-77
2023/10/23 11:33:56;;;;;;;5.00;4.03;;;;;;;11.77;nan;98888.38;4901016;29;20202;-77
2023/10/23 11:36:21;;;;;;;3.70;3.40;;;;;;;11.90;nan;98897.81;4899766;29;20284;-77
2023/10/23 11:38:47;;;;;;;4.20;3.80;;;;;;;12.05;nan;98910.72;4898254;29;20685;-77
2023/10/23 11:41:14;;;;;;;5.57;3.80;;;;;;;12.14;nan;98909.97;4900143;29;20218;-74
2023/10/23 11:43:40;;;;;;;5.05;3.55;;;;;;;12.22;nan;98912.81;4901383;29;20211;-76
2023/10/23 11:46:07;;;;;;;3.47;2.53;;;;;;;12.30;nan;98901.66;4902590;29;20217;-77
2023/10/23 11:48:32;;;;;;;2.80;2.42;;;;;;;12.34;nan;98876.72;4895454;29;20242;-76
2023/10/23 11:50:59;;;;;;;5.40;2.87;;;;;;;12.20;nan;98837.53;4896795;29;20255;-74